sensor_id;sensor_type;location;lat;lon;timestamp;P1;durP1;ratioP1;P2;durP2;ratioP2
16272;SDS011;8244;50.044;9.006;2023-03-14T00:03:20;2.20;;;1.30;;
16272;SDS011;8244;50.044;9.006;2023-03-14T00:08:22;2.45;;;1.00;;
16272;SDS011;8244;50.044;9.006;2023-03-14T00:13:24;1.10;;;1.00;;
16272;SDS011;8244;50.044;9.006;2023-03-14T00:18:27;1.45;;;1.02;;
16272;SDS011;8244;50.044;9.006;2023-03-14T00:23:29;2.17;;;1.17;;
16272;SDS011;8244;50.044;9.006;2023-03-14T00:28:32;1.40;;;1.30;;
16272;SDS011;8244;50.044;9.006;2023-03-14T00:33:35;2.13;;;1.30;;
16272;SDS011;8244;50.044;9.006;2023-03-14T00:38:37;4.03;;;1.27;;
16272;SDS011;8244;50.044;9.006;2023-03-14T00:43:41;2.33;;;1.20;;
16272;SDS011;8244;50.044;9.006;2023-03-14T00:48:45;3.33;;;1.15;;
16272;SDS011;8244;50.044;9.006;2023-03-14T00:53:47;3.42;;;1.10;;
16272;SDS011;8244;50.044;9.006;2023-03-14T00:58:49;5.63;;;1.42;;
16272;SDS011;8244;50.044;9.006;2023-03-14T01:03:55;4.38;;;2.03;;
16272;SDS011;8244;50.044;9.006;2023-03-14T01:08:57;3.13;;;1.30;;
16272;SDS011;8244;50.044;9.006;2023-03-14T01:14:00;4.80;;;1.63;;
16272;SDS011;8244;50.044;9.006;2023-03-14T01:19:04;3.70;;;1.30;;
16272;SDS011;8244;50.044;9.006;2023-03-14T01:24:05;3.03;;;1.40;;
16272;SDS011;8244;50.044;9.006;2023-03-14T01:29:08;4.32;;;1.50;;
16272;SDS011;8244;50.044;9.006;2023-03-14T01:34:11;4.38;;;1.30;;
16272;SDS011;8244;50.044;9.006;2023-03-14T01:39:13;6.57;;;1.48;;
16272;SDS011;8244;50.044;9.006;2023-03-14T01:44:15;4.80;;;1.45;;
16272;SDS011;8244;50.044;9.006;2023-03-14T01:49:22;6.97;;;1.23;;
16272;SDS011;8244;50.044;9.006;2023-03-14T01:54:28;7.18;;;1.60;;
16272;SDS011;8244;50.044;9.006;2023-03-14T01:59:33;3.08;;;1.35;;
16272;SDS011;8244;50.044;9.006;2023-03-14T02:04:39;5.38;;;1.70;;
16272;SDS011;8244;50.044;9.006;2023-03-14T02:09:42;4.70;;;1.40;;
16272;SDS011;8244;50.044;9.006;2023-03-14T02:14:44;5.47;;;1.55;;
16272;SDS011;8244;50.044;9.006;2023-03-14T02:19:53;4.85;;;1.48;;
16272;SDS011;8244;50.044;9.006;2023-03-14T02:25:08;6.10;;;1.45;;
16272;SDS011;8244;50.044;9.006;2023-03-14T02:30:16;4.88;;;1.45;;
16272;SDS011;8244;50.044;9.006;2023-03-14T02:35:20;4.93;;;1.58;;
16272;SDS011;8244;50.044;9.006;2023-03-14T02:40:25;5.28;;;1.30;;
16272;SDS011;8244;50.044;9.006;2023-03-14T02:45:34;1.67;;;1.10;;
16272;SDS011;8244;50.044;9.006;2023-03-14T02:50:38;4.57;;;1.58;;
16272;SDS011;8244;50.044;9.006;2023-03-14T02:55:43;5.18;;;1.42;;
16272;SDS011;8244;50.044;9.006;2023-03-14T03:00:47;2.22;;;1.30;;
16272;SDS011;8244;50.044;9.006;2023-03-14T03:05:50;6.22;;;1.42;;
16272;SDS011;8244;50.044;9.006;2023-03-14T03:10:52;7.88;;;1.58;;
16272;SDS011;8244;50.044;9.006;2023-03-14T03:15:56;4.63;;;1.45;;
16272;SDS011;8244;50.044;9.006;2023-03-14T03:20:59;4.75;;;1.40;;
16272;SDS011;8244;50.044;9.006;2023-03-14T03:26:01;5.20;;;1.42;;
16272;SDS011;8244;50.044;9.006;2023-03-14T03:31:07;10.13;;;1.55;;
16272;SDS011;8244;50.044;9.006;2023-03-14T03:36:10;2.72;;;1.13;;
16272;SDS011;8244;50.044;9.006;2023-03-14T03:41:11;4.22;;;1.30;;
16272;SDS011;8244;50.044;9.006;2023-03-14T03:46:14;4.18;;;1.40;;
16272;SDS011;8244;50.044;9.006;2023-03-14T03:51:16;4.05;;;1.50;;
16272;SDS011;8244;50.044;9.006;2023-03-14T03:56:18;4.22;;;1.40;;
16272;SDS011;8244;50.044;9.006;2023-03-14T04:01:21;4.72;;;1.38;;
16272;SDS011;8244;50.044;9.006;2023-03-14T04:06:22;3.67;;;1.30;;
16272;SDS011;8244;50.044;9.006;2023-03-14T04:11:24;4.97;;;1.42;;
16272;SDS011;8244;50.044;9.006;2023-03-14T04:16:27;5.22;;;1.60;;
16272;SDS011;8244;50.044;9.006;2023-03-14T04:21:31;6.95;;;1.50;;
16272;SDS011;8244;50.044;9.006;2023-03-14T04:26:33;5.63;;;1.40;;
16272;SDS011;8244;50.044;9.006;2023-03-14T04:31:36;3.67;;;1.20;;
16272;SDS011;8244;50.044;9.006;2023-03-14T04:36:37;3.70;;;1.30;;
16272;SDS011;8244;50.044;9.006;2023-03-14T04:41:39;7.20;;;1.42;;
16272;SDS011;8244;50.044;9.006;2023-03-14T04:46:42;3.80;;;1.30;;
16272;SDS011;8244;50.044;9.006;2023-03-14T04:51:44;6.28;;;1.67;;
16272;SDS011;8244;50.044;9.006;2023-03-14T04:56:45;8.27;;;1.30;;
16272;SDS011;8244;50.044;9.006;2023-03-14T05:01:48;5.72;;;1.52;;
16272;SDS011;8244;50.044;9.006;2023-03-14T05:06:50;4.90;;;1.50;;
16272;SDS011;8244;50.044;9.006;2023-03-14T05:11:52;3.65;;;1.50;;
16272;SDS011;8244;50.044;9.006;2023-03-14T05:16:55;3.38;;;1.15;;
16272;SDS011;8244;50.044;9.006;2023-03-14T05:21:57;7.18;;;1.50;;
16272;SDS011;8244;50.044;9.006;2023-03-14T05:26:59;4.07;;;1.60;;
16272;SDS011;8244;50.044;9.006;2023-03-14T05:32:02;6.05;;;1.40;;
16272;SDS011;8244;50.044;9.006;2023-03-14T05:37:04;3.80;;;1.60;;
16272;SDS011;8244;50.044;9.006;2023-03-14T05:42:06;4.35;;;1.27;;
16272;SDS011;8244;50.044;9.006;2023-03-14T05:47:09;6.22;;;1.50;;
16272;SDS011;8244;50.044;9.006;2023-03-14T05:52:10;4.75;;;1.30;;
16272;SDS011;8244;50.044;9.006;2023-03-14T05:57:13;4.95;;;1.38;;
16272;SDS011;8244;50.044;9.006;2023-03-14T06:02:16;5.53;;;1.30;;
16272;SDS011;8244;50.044;9.006;2023-03-14T06:07:17;4.32;;;1.58;;
16272;SDS011;8244;50.044;9.006;2023-03-14T06:12:20;2.78;;;1.35;;
16272;SDS011;8244;50.044;9.006;2023-03-14T06:17:23;5.07;;;1.50;;
16272;SDS011;8244;50.044;9.006;2023-03-14T06:22:25;5.85;;;1.50;;
16272;SDS011;8244;50.044;9.006;2023-03-14T06:27:26;3.55;;;1.20;;
16272;SDS011;8244;50.044;9.006;2023-03-14T06:32:29;6.00;;;1.75;;
16272;SDS011;8244;50.044;9.006;2023-03-14T06:37:31;4.45;;;1.17;;
16272;SDS011;8244;50.044;9.006;2023-03-14T06:42:33;5.95;;;1.42;;
16272;SDS011;8244;50.044;9.006;2023-03-14T06:47:36;3.53;;;1.23;;
16272;SDS011;8244;50.044;9.006;2023-03-14T06:52:38;3.95;;;1.20;;
16272;SDS011;8244;50.044;9.006;2023-03-14T06:57:41;1.92;;;1.10;;
16272;SDS011;8244;50.044;9.006;2023-03-14T07:02:45;3.63;;;1.17;;
16272;SDS011;8244;50.044;9.006;2023-03-14T07:07:47;5.25;;;1.10;;
16272;SDS011;8244;50.044;9.006;2023-03-14T07:12:48;4.55;;;1.40;;
16272;SDS011;8244;50.044;9.006;2023-03-14T07:17:51;3.53;;;1.20;;
16272;SDS011;8244;50.044;9.006;2023-03-14T07:22:53;4.93;;;1.30;;
16272;SDS011;8244;50.044;9.006;2023-03-14T07:27:55;4.55;;;1.33;;
16272;SDS011;8244;50.044;9.006;2023-03-14T07:32:58;4.78;;;1.30;;
16272;SDS011;8244;50.044;9.006;2023-03-14T07:37:59;4.28;;;1.42;;
16272;SDS011;8244;50.044;9.006;2023-03-14T07:43:01;3.45;;;1.17;;
16272;SDS011;8244;50.044;9.006;2023-03-14T07:48:04;4.07;;;1.05;;
16272;SDS011;8244;50.044;9.006;2023-03-14T07:53:06;6.72;;;1.30;;
16272;SDS011;8244;50.044;9.006;2023-03-14T07:58:07;3.25;;;1.17;;
16272;SDS011;8244;50.044;9.006;2023-03-14T08:03:10;4.90;;;1.30;;
16272;SDS011;8244;50.044;9.006;2023-03-14T08:08:12;5.72;;;1.40;;
16272;SDS011;8244;50.044;9.006;2023-03-14T08:13:14;4.93;;;1.38;;
16272;SDS011;8244;50.044;9.006;2023-03-14T08:18:17;4.65;;;1.20;;
16272;SDS011;8244;50.044;9.006;2023-03-14T08:23:19;2.90;;;1.20;;
16272;SDS011;8244;50.044;9.006;2023-03-14T08:28:20;3.10;;;1.27;;
16272;SDS011;8244;50.044;9.006;2023-03-14T08:33:24;1.95;;;0.95;;
16272;SDS011;8244;50.044;9.006;2023-03-14T08:38:26;4.35;;;1.05;;
16272;SDS011;8244;50.044;9.006;2023-03-14T08:43:28;3.95;;;1.05;;
16272;SDS011;8244;50.044;9.006;2023-03-14T08:48:31;2.15;;;0.90;;
16272;SDS011;8244;50.044;9.006;2023-03-14T08:53:33;3.80;;;1.10;;
16272;SDS011;8244;50.044;9.006;2023-03-14T08:58:35;3.40;;;1.13;;
16272;SDS011;8244;50.044;9.006;2023-03-14T09:03:39;2.03;;;0.90;;
16272;SDS011;8244;50.044;9.006;2023-03-14T09:08:40;3.25;;;0.85;;
16272;SDS011;8244;50.044;9.006;2023-03-14T09:13:42;1.67;;;0.80;;
16272;SDS011;8244;50.044;9.006;2023-03-14T09:18:45;1.50;;;0.75;;
16272;SDS011;8244;50.044;9.006;2023-03-14T09:23:47;2.92;;;1.10;;
16272;SDS011;8244;50.044;9.006;2023-03-14T09:28:49;1.13;;;0.90;;
16272;SDS011;8244;50.044;9.006;2023-03-14T09:33:52;2.97;;;1.10;;
16272;SDS011;8244;50.044;9.006;2023-03-14T09:38:53;1.75;;;0.85;;
16272;SDS011;8244;50.044;9.006;2023-03-14T09:43:57;2.78;;;0.93;;
16272;SDS011;8244;50.044;9.006;2023-03-14T09:49:09;2.17;;;0.95;;
16272;SDS011;8244;50.044;9.006;2023-03-14T09:54:17;1.95;;;0.80;;
16272;SDS011;8244;50.044;9.006;2023-03-14T09:59:28;0.95;;;0.88;;
16272;SDS011;8244;50.044;9.006;2023-03-14T10:04:32;1.35;;;0.98;;
16272;SDS011;8244;50.044;9.006;2023-03-14T10:09:34;2.10;;;0.70;;
16272;SDS011;8244;50.044;9.006;2023-03-14T10:14:37;1.85;;;0.88;;
16272;SDS011;8244;50.044;9.006;2023-03-14T10:19:52;0.80;;;0.80;;
16272;SDS011;8244;50.044;9.006;2023-03-14T10:24:55;4.20;;;0.80;;
16272;SDS011;8244;50.044;9.006;2023-03-14T10:30:00;1.58;;;0.77;;
16272;SDS011;8244;50.044;9.006;2023-03-14T10:40:27;3.33;;;2.05;;
16272;SDS011;8244;50.044;9.006;2023-03-14T10:45:32;1.10;;;0.73;;
16272;SDS011;8244;50.044;9.006;2023-03-14T10:50:38;1.58;;;0.75;;
16272;SDS011;8244;50.044;9.006;2023-03-14T10:55:49;1.80;;;1.27;;
16272;SDS011;8244;50.044;9.006;2023-03-14T11:00:53;5.55;;;1.60;;
16272;SDS011;8244;50.044;9.006;2023-03-14T11:06:04;2.05;;;1.23;;
16272;SDS011;8244;50.044;9.006;2023-03-14T11:11:14;4.10;;;1.80;;
16272;SDS011;8244;50.044;9.006;2023-03-14T11:16:22;8.57;;;1.98;;
16272;SDS011;8244;50.044;9.006;2023-03-14T11:21:34;2.97;;;1.80;;
16272;SDS011;8244;50.044;9.006;2023-03-14T11:26:44;3.53;;;1.40;;
16272;SDS011;8244;50.044;9.006;2023-03-14T11:31:49;3.20;;;1.30;;
16272;SDS011;8244;50.044;9.006;2023-03-14T11:36:58;1.65;;;1.08;;
16272;SDS011;8244;50.044;9.006;2023-03-14T11:42:02;2.13;;;1.13;;
16272;SDS011;8244;50.044;9.006;2023-03-14T11:47:05;1.55;;;0.95;;
16272;SDS011;8244;50.044;9.006;2023-03-14T11:52:15;3.95;;;2.25;;
16272;SDS011;8244;50.044;9.006;2023-03-14T11:57:22;5.72;;;2.30;;
16272;SDS011;8244;50.044;9.006;2023-03-14T12:02:26;13.07;;;4.80;;
16272;SDS011;8244;50.044;9.006;2023-03-14T12:07:39;10.50;;;3.22;;
16272;SDS011;8244;50.044;9.006;2023-03-14T12:12:52;1.58;;;1.10;;
16272;SDS011;8244;50.044;9.006;2023-03-14T12:17:54;3.15;;;1.38;;
16272;SDS011;8244;50.044;9.006;2023-03-14T12:23:01;2.75;;;1.08;;
16272;SDS011;8244;50.044;9.006;2023-03-14T12:28:13;0.82;;;0.80;;
16272;SDS011;8244;50.044;9.006;2023-03-14T12:33:29;2.28;;;1.20;;
16272;SDS011;8244;50.044;9.006;2023-03-14T12:38:37;0.70;;;0.70;;
16272;SDS011;8244;50.044;9.006;2023-03-14T12:43:49;1.38;;;0.73;;
16272;SDS011;8244;50.044;9.006;2023-03-14T12:48:54;1.10;;;0.75;;
16272;SDS011;8244;50.044;9.006;2023-03-14T12:54:12;1.20;;;0.90;;
16272;SDS011;8244;50.044;9.006;2023-03-14T12:59:32;0.68;;;0.68;;
16272;SDS011;8244;50.044;9.006;2023-03-14T13:04:35;2.30;;;0.60;;
16272;SDS011;8244;50.044;9.006;2023-03-14T13:15:01;0.93;;;0.40;;
16272;SDS011;8244;50.044;9.006;2023-03-14T13:20:14;0.52;;;0.50;;
16272;SDS011;8244;50.044;9.006;2023-03-14T13:25:33;0.90;;;0.80;;
16272;SDS011;8244;50.044;9.006;2023-03-14T13:30:39;0.75;;;0.75;;
16272;SDS011;8244;50.044;9.006;2023-03-14T13:35:43;1.35;;;1.10;;
16272;SDS011;8244;50.044;9.006;2023-03-14T13:40:47;1.05;;;0.93;;
16272;SDS011;8244;50.044;9.006;2023-03-14T13:45:51;1.35;;;0.70;;
16272;SDS011;8244;50.044;9.006;2023-03-14T13:50:55;2.58;;;0.70;;
16272;SDS011;8244;50.044;9.006;2023-03-14T13:56:02;1.20;;;0.90;;
16272;SDS011;8244;50.044;9.006;2023-03-14T14:01:05;1.02;;;0.73;;
16272;SDS011;8244;50.044;9.006;2023-03-14T14:06:25;0.70;;;0.70;;
16272;SDS011;8244;50.044;9.006;2023-03-14T14:11:36;1.88;;;0.50;;
16272;SDS011;8244;50.044;9.006;2023-03-14T14:16:42;10.07;;;3.22;;
16272;SDS011;8244;50.044;9.006;2023-03-14T14:21:45;9.25;;;3.22;;
16272;SDS011;8244;50.044;9.006;2023-03-14T14:26:49;1.20;;;0.70;;
16272;SDS011;8244;50.044;9.006;2023-03-14T14:31:59;2.03;;;0.77;;
16272;SDS011;8244;50.044;9.006;2023-03-14T14:37:02;1.63;;;0.60;;
16272;SDS011;8244;50.044;9.006;2023-03-14T14:42:11;0.88;;;0.70;;
16272;SDS011;8244;50.044;9.006;2023-03-14T14:47:15;0.57;;;0.50;;
16272;SDS011;8244;50.044;9.006;2023-03-14T14:52:20;0.40;;;0.40;;
16272;SDS011;8244;50.044;9.006;2023-03-14T14:57:25;0.93;;;0.60;;
16272;SDS011;8244;50.044;9.006;2023-03-14T15:02:31;0.50;;;0.50;;
16272;SDS011;8244;50.044;9.006;2023-03-14T15:07:39;2.03;;;0.60;;
16272;SDS011;8244;50.044;9.006;2023-03-14T15:12:42;0.40;;;0.40;;
16272;SDS011;8244;50.044;9.006;2023-03-14T15:17:44;1.90;;;0.52;;
16272;SDS011;8244;50.044;9.006;2023-03-14T15:22:46;1.42;;;0.70;;
16272;SDS011;8244;50.044;9.006;2023-03-14T15:27:49;0.70;;;0.70;;
16272;SDS011;8244;50.044;9.006;2023-03-14T15:32:51;0.50;;;0.50;;
16272;SDS011;8244;50.044;9.006;2023-03-14T15:37:52;0.70;;;0.70;;
16272;SDS011;8244;50.044;9.006;2023-03-14T15:42:56;1.65;;;1.02;;
16272;SDS011;8244;50.044;9.006;2023-03-14T15:47:58;2.03;;;1.40;;
16272;SDS011;8244;50.044;9.006;2023-03-14T15:53:00;1.30;;;1.20;;
16272;SDS011;8244;50.044;9.006;2023-03-14T15:58:03;1.05;;;0.90;;
16272;SDS011;8244;50.044;9.006;2023-03-14T16:03:05;1.02;;;0.77;;
16272;SDS011;8244;50.044;9.006;2023-03-14T16:08:06;1.85;;;0.80;;
16272;SDS011;8244;50.044;9.006;2023-03-14T16:13:10;0.93;;;0.80;;
16272;SDS011;8244;50.044;9.006;2023-03-14T16:18:12;1.75;;;0.77;;
16272;SDS011;8244;50.044;9.006;2023-03-14T16:23:14;0.80;;;0.77;;
16272;SDS011;8244;50.044;9.006;2023-03-14T16:28:18;0.70;;;0.70;;
16272;SDS011;8244;50.044;9.006;2023-03-14T16:33:20;0.88;;;0.88;;
16272;SDS011;8244;50.044;9.006;2023-03-14T16:38:23;1.63;;;1.10;;
16272;SDS011;8244;50.044;9.006;2023-03-14T16:43:27;1.13;;;0.90;;
16272;SDS011;8244;50.044;9.006;2023-03-14T16:48:29;1.58;;;1.05;;
16272;SDS011;8244;50.044;9.006;2023-03-14T16:53:30;0.82;;;0.82;;
16272;SDS011;8244;50.044;9.006;2023-03-14T16:58:33;0.80;;;0.80;;
16272;SDS011;8244;50.044;9.006;2023-03-14T17:03:36;2.08;;;1.10;;
16272;SDS011;8244;50.044;9.006;2023-03-14T17:08:38;1.27;;;1.00;;
16272;SDS011;8244;50.044;9.006;2023-03-14T17:13:41;2.92;;;1.10;;
16272;SDS011;8244;50.044;9.006;2023-03-14T17:18:43;0.95;;;0.95;;
16272;SDS011;8244;50.044;9.006;2023-03-14T17:23:45;1.08;;;0.95;;
16272;SDS011;8244;50.044;9.006;2023-03-14T17:28:48;2.47;;;1.17;;
16272;SDS011;8244;50.044;9.006;2023-03-14T17:33:50;1.27;;;0.93;;
16272;SDS011;8244;50.044;9.006;2023-03-14T17:38:59;1.60;;;1.05;;
16272;SDS011;8244;50.044;9.006;2023-03-14T17:44:04;1.15;;;0.90;;
16272;SDS011;8244;50.044;9.006;2023-03-14T17:49:06;0.85;;;0.68;;
16272;SDS011;8244;50.044;9.006;2023-03-14T17:54:08;1.15;;;0.90;;
16272;SDS011;8244;50.044;9.006;2023-03-14T17:59:11;0.88;;;0.70;;
16272;SDS011;8244;50.044;9.006;2023-03-14T18:04:13;0.70;;;0.70;;
16272;SDS011;8244;50.044;9.006;2023-03-14T18:09:16;0.93;;;0.85;;
16272;SDS011;8244;50.044;9.006;2023-03-14T18:14:19;1.42;;;0.90;;
16272;SDS011;8244;50.044;9.006;2023-03-14T18:19:21;0.73;;;0.73;;
16272;SDS011;8244;50.044;9.006;2023-03-14T18:24:23;2.90;;;1.00;;
16272;SDS011;8244;50.044;9.006;2023-03-14T18:29:28;1.67;;;1.00;;
16272;SDS011;8244;50.044;9.006;2023-03-14T18:34:29;1.25;;;1.00;;
16272;SDS011;8244;50.044;9.006;2023-03-14T18:39:32;1.75;;;0.88;;
16272;SDS011;8244;50.044;9.006;2023-03-14T18:44:35;1.63;;;1.52;;
16272;SDS011;8244;50.044;9.006;2023-03-14T18:49:37;3.40;;;1.70;;
16272;SDS011;8244;50.044;9.006;2023-03-14T18:54:39;2.55;;;1.95;;
16272;SDS011;8244;50.044;9.006;2023-03-14T18:59:42;3.17;;;1.40;;
16272;SDS011;8244;50.044;9.006;2023-03-14T19:04:44;3.20;;;1.33;;
16272;SDS011;8244;50.044;9.006;2023-03-14T19:09:45;1.88;;;1.60;;
16272;SDS011;8244;50.044;9.006;2023-03-14T19:14:48;3.60;;;2.10;;
16272;SDS011;8244;50.044;9.006;2023-03-14T19:19:50;3.70;;;1.73;;
16272;SDS011;8244;50.044;9.006;2023-03-14T19:24:53;4.68;;;1.60;;
16272;SDS011;8244;50.044;9.006;2023-03-14T19:29:56;3.67;;;1.50;;
16272;SDS011;8244;50.044;9.006;2023-03-14T19:34:58;6.18;;;2.20;;
16272;SDS011;8244;50.044;9.006;2023-03-14T19:40:00;5.50;;;2.10;;
16272;SDS011;8244;50.044;9.006;2023-03-14T19:45:04;5.23;;;2.20;;
16272;SDS011;8244;50.044;9.006;2023-03-14T19:50:07;6.15;;;2.45;;
16272;SDS011;8244;50.044;9.006;2023-03-14T19:55:10;9.30;;;2.50;;
16272;SDS011;8244;50.044;9.006;2023-03-14T20:00:15;8.55;;;3.00;;
16272;SDS011;8244;50.044;9.006;2023-03-14T20:05:18;8.87;;;2.60;;
16272;SDS011;8244;50.044;9.006;2023-03-14T20:10:21;10.10;;;2.97;;
16272;SDS011;8244;50.044;9.006;2023-03-14T20:15:24;8.20;;;3.00;;
16272;SDS011;8244;50.044;9.006;2023-03-14T20:20:26;6.23;;;3.10;;
16272;SDS011;8244;50.044;9.006;2023-03-14T20:25:28;6.37;;;3.23;;
16272;SDS011;8244;50.044;9.006;2023-03-14T20:30:31;7.97;;;3.27;;
16272;SDS011;8244;50.044;9.006;2023-03-14T20:35:33;11.43;;;3.43;;
16272;SDS011;8244;50.044;9.006;2023-03-14T20:40:35;7.43;;;3.90;;
16272;SDS011;8244;50.044;9.006;2023-03-14T20:45:38;9.73;;;4.80;;
16272;SDS011;8244;50.044;9.006;2023-03-14T20:50:39;10.00;;;3.77;;
16272;SDS011;8244;50.044;9.006;2023-03-14T20:55:41;13.00;;;3.10;;
16272;SDS011;8244;50.044;9.006;2023-03-14T21:00:45;11.27;;;2.80;;
16272;SDS011;8244;50.044;9.006;2023-03-14T21:05:49;10.07;;;3.47;;
16272;SDS011;8244;50.044;9.006;2023-03-14T21:10:52;13.63;;;4.70;;
16272;SDS011;8244;50.044;9.006;2023-03-14T21:15:57;12.27;;;4.30;;
16272;SDS011;8244;50.044;9.006;2023-03-14T21:20:59;13.63;;;5.33;;
16272;SDS011;8244;50.044;9.006;2023-03-14T21:26:01;10.30;;;4.10;;
16272;SDS011;8244;50.044;9.006;2023-03-14T21:31:05;10.63;;;3.70;;
16272;SDS011;8244;50.044;9.006;2023-03-14T21:36:08;9.40;;;4.13;;
16272;SDS011;8244;50.044;9.006;2023-03-14T21:41:16;13.67;;;4.30;;
16272;SDS011;8244;50.044;9.006;2023-03-14T21:46:19;10.77;;;4.10;;
16272;SDS011;8244;50.044;9.006;2023-03-14T21:51:21;12.83;;;4.30;;
16272;SDS011;8244;50.044;9.006;2023-03-14T21:56:30;12.33;;;3.10;;
16272;SDS011;8244;50.044;9.006;2023-03-14T22:01:34;12.57;;;3.87;;
16272;SDS011;8244;50.044;9.006;2023-03-14T22:06:35;14.87;;;4.70;;
16272;SDS011;8244;50.044;9.006;2023-03-14T22:11:37;12.47;;;3.37;;
16272;SDS011;8244;50.044;9.006;2023-03-14T22:16:40;12.73;;;3.37;;
16272;SDS011;8244;50.044;9.006;2023-03-14T22:21:42;10.77;;;2.60;;
16272;SDS011;8244;50.044;9.006;2023-03-14T22:26:44;12.93;;;3.00;;
16272;SDS011;8244;50.044;9.006;2023-03-14T22:31:47;9.23;;;3.00;;
16272;SDS011;8244;50.044;9.006;2023-03-14T22:36:48;11.43;;;3.70;;
16272;SDS011;8244;50.044;9.006;2023-03-14T22:41:50;11.47;;;3.80;;
16272;SDS011;8244;50.044;9.006;2023-03-14T22:46:53;13.37;;;4.20;;
16272;SDS011;8244;50.044;9.006;2023-03-14T22:51:55;14.30;;;4.63;;
16272;SDS011;8244;50.044;9.006;2023-03-14T22:56:56;9.30;;;3.53;;
16272;SDS011;8244;50.044;9.006;2023-03-14T23:01:59;12.20;;;3.80;;
16272;SDS011;8244;50.044;9.006;2023-03-14T23:07:01;10.53;;;2.97;;
16272;SDS011;8244;50.044;9.006;2023-03-14T23:12:03;17.53;;;3.27;;
16272;SDS011;8244;50.044;9.006;2023-03-14T23:17:06;12.73;;;3.10;;
16272;SDS011;8244;50.044;9.006;2023-03-14T23:22:08;13.40;;;3.00;;
16272;SDS011;8244;50.044;9.006;2023-03-14T23:27:10;9.73;;;3.00;;
16272;SDS011;8244;50.044;9.006;2023-03-14T23:32:14;7.33;;;2.90;;
16272;SDS011;8244;50.044;9.006;2023-03-14T23:37:16;10.13;;;3.27;;
16272;SDS011;8244;50.044;9.006;2023-03-14T23:42:17;10.10;;;2.83;;
16272;SDS011;8244;50.044;9.006;2023-03-14T23:47:20;11.10;;;3.03;;
16272;SDS011;8244;50.044;9.006;2023-03-14T23:52:22;9.97;;;2.77;;
16272;SDS011;8244;50.044;9.006;2023-03-14T23:57:24;14.43;;;2.90;;
